Αρχική σελίδα
METAR-TAF:

METAR-TAF

Αεροδρόμια :

Yap, Μικρονησία

γεωγραφικό πλάτος: 09-29N, γεωγραφικό μήκος: 138-05E, υψόμετρο: 28 μ

Παρών καιρός

Η αναφορά έγινε 1 ώρα και 4 λεπτά πριν, στις 21:51 UTC
Άνεμος 8 kt από Α/BA
Θερμοκρασία 29°C
Υγρασία 79%
Πίεση 1010 hPa
Ορατότητα: 19.3 χλμ
Λίγα νέφη σε ύψος 1600 πόδια
Διάσπαρτα νέφη σε ύψος 30000 πόδια

METAR: PTYA 182151Z 07008KT 12SM FEW016 SCT300 29/25 A2982 RMK SLP100 T02900245

Χρόνος: 08:55 (22:55 UTC)

Πρόγνωση Καιρού

Η αναφορά έγινε 5 ώρες και 13 λεπτά πριν, στις 17:42 UTC
Η πρόγνωση ισχύει από τις 18 στις 18 UTC έως τις 19 στις 18 UTC
Άνεμος 6 kt από Α
Ορατότητα: 10 χλμ
Λίγα νέφη σε ύψος 1700 πόδια
Διάσπαρτα νέφη σε ύψος 5000 πόδια
Διάσπαρτα νέφη σε ύψος 13000 πόδια

TAF: PTYA 181742Z 1818/1918 08006KT P6SM FEW017 SCT050 SCT130

Μετεωρολογικές αναφορές και προγνώσεις για περισσότερα από 4000 αεροδρόμια (δελτία METAR και TAF).

Οι διαθέσιμοι σταθμοί απεικονίζονται στο χάρτη με κίτρινες και κόκκινες κουκκίδες.

Μετακινήστε το ποντίκι πάνω από τις κουκκίδες για να δείτε το όνομα του σταθμού.

Στη συνέχεια, κάντε κλικ για να δείτε τις μετεωρολογικές αναφορές και τις προγνώσεις καιρού.

Για να αλλάξετε το χάρτη: κάντε κλικ στα πράσινα κουμπιά με τον μαύρο σταυρό για να ζουμάρετε, στο πράσινο κουμπί με την παύλα για να αφαιρέσετε το ζουμ ή στα πράσινα βέλη για να αντιπαραβάλλετε χάρτες.


METAR-TAF: